Time;durP1;ratioP1;P1;durP2;ratioP2;P2;SDS_P1;SDS_P2;PMS_P1;PMS_P2;Temp;Humidity;BMP_temperature;BMP_pressure;BME280_temperature;BME280_humidity;BME280_pressure;Samples;Min_cycle;Max_cycle;Signal;HPM_P1;HPM_P2
2023/12/08 00:01:14;;;;;;;1.90;1.80;;;21.40;67.60;;;;;;4987658;28;20492;-58
2023/12/08 00:03:41;;;;;;;1.40;1.30;;;21.40;67.50;;;;;;4985855;28;20522;-59
2023/12/08 00:06:08;;;;;;;1.77;1.50;;;21.40;67.50;;;;;;4987865;28;20463;-56
2023/12/08 00:08:35;;;;;;;1.40;1.30;;;21.40;67.60;;;;;;4981268;28;20465;-58
2023/12/08 00:11:02;;;;;;;1.77;1.40;;;21.40;67.60;;;;;;4982756;28;20475;-59
2023/12/08 00:13:29;;;;;;;1.20;1.10;;;21.40;67.60;;;;;;4988514;28;20460;-59
2023/12/08 00:15:57;;;;;;;1.40;1.23;;;21.40;67.60;;;;;;4980313;28;20468;-59
2023/12/08 00:18:23;;;;;;;1.70;1.13;;;21.40;67.60;;;;;;4980378;28;20848;-59
2023/12/08 00:20:50;;;;;;;2.10;1.77;;;21.40;67.60;;;;;;4981603;28;20460;-60
2023/12/08 00:23:17;;;;;;;1.70;1.50;;;21.40;67.60;;;;;;4986478;28;20484;-57
2023/12/08 00:25:44;;;;;;;1.40;1.30;;;21.40;67.80;;;;;;4981801;28;20601;-59
2023/12/08 00:28:11;;;;;;;1.70;1.60;;;21.40;67.80;;;;;;4980385;28;20468;-59
2023/12/08 00:30:37;;;;;;;1.70;1.33;;;21.40;67.90;;;;;;4982094;28;20240;-60
2023/12/08 00:33:06;;;;;;;1.40;1.10;;;21.40;67.90;;;;;;4983260;28;20471;-57
2023/12/08 00:35:32;;;;;;;1.70;1.43;;;21.40;67.90;;;;;;4983428;28;20202;-58
2023/12/08 00:37:59;;;;;;;1.13;1.00;;;21.40;67.90;;;;;;4980959;28;20464;-60
2023/12/08 00:40:26;;;;;;;1.37;1.23;;;21.30;67.80;;;;;;4982099;28;20479;-61
2023/12/08 00:42:52;;;;;;;1.83;1.53;;;21.40;67.90;;;;;;4984465;28;21022;-61
2023/12/08 00:45:21;;;;;;;1.60;1.50;;;21.30;67.90;;;;;;4984324;28;21068;-57
2023/12/08 00:47:48;;;;;;;2.13;1.50;;;21.40;67.90;;;;;;4984822;28;20448;-60
2023/12/08 00:50:16;;;;;;;1.95;1.60;;;21.40;67.90;;;;;;4984887;28;20571;-62
2023/12/08 00:52:44;;;;;;;1.60;1.40;;;21.30;67.80;;;;;;4984106;28;20200;-62
2023/12/08 00:55:11;;;;;;;1.50;1.40;;;21.30;67.80;;;;;;4984420;28;21879;-61
2023/12/08 00:57:37;;;;;;;1.40;1.30;;;21.30;67.70;;;;;;4982732;28;20468;-60
2023/12/08 01:00:05;;;;;;;1.40;1.20;;;21.30;67.80;;;;;;4983372;28;20197;-61
2023/12/08 01:02:32;;;;;;;2.00;1.80;;;21.30;67.80;;;;;;4985705;28;20568;-61
2023/12/08 01:04:58;;;;;;;2.00;1.73;;;21.30;67.80;;;;;;4987360;28;20460;-58
2023/12/08 01:07:26;;;;;;;1.30;1.13;;;21.30;67.80;;;;;;4987155;28;20581;-62
2023/12/08 01:09:53;;;;;;;2.10;1.38;;;21.30;67.80;;;;;;4986814;28;21065;-61
2023/12/08 01:12:20;;;;;;;1.60;1.30;;;21.30;67.90;;;;;;4987103;28;20203;-60
2023/12/08 01:14:47;;;;;;;2.50;1.37;;;21.30;67.80;;;;;;4987005;28;20197;-60
2023/12/08 01:17:13;;;;;;;1.50;1.40;;;21.30;67.80;;;;;;4987528;28;20460;-60
2023/12/08 01:19:40;;;;;;;1.23;1.02;;;21.30;67.80;;;;;;4987604;28;20470;-61
2023/12/08 01:22:07;;;;;;;1.77;1.25;;;21.30;67.60;;;;;;4987305;28;21201;-62
2023/12/08 01:24:35;;;;;;;1.40;1.20;;;21.30;67.60;;;;;;4988555;28;20200;-60
2023/12/08 01:27:02;;;;;;;1.50;1.37;;;21.30;67.70;;;;;;4985764;28;20660;-61
2023/12/08 01:29:28;;;;;;;1.80;1.30;;;21.30;67.70;;;;;;4988013;28;20456;-62
2023/12/08 01:31:55;;;;;;;1.35;1.20;;;21.20;67.60;;;;;;4988187;28;20479;-60
2023/12/08 01:34:22;;;;;;;1.70;1.30;;;21.20;67.60;;;;;;4988313;28;20223;-61
2023/12/08 01:36:49;;;;;;;1.53;1.43;;;21.20;67.50;;;;;;4990721;28;20466;-59
2023/12/08 01:39:15;;;;;;;1.63;1.42;;;21.30;67.80;;;;;;4990758;28;20475;-61
2023/12/08 01:41:43;;;;;;;1.47;1.23;;;21.20;67.50;;;;;;4992818;28;21117;-61
2023/12/08 01:44:10;;;;;;;1.47;1.00;;;21.20;67.50;;;;;;4989562;28;20467;-62
2023/12/08 01:46:37;;;;;;;1.80;1.30;;;21.20;67.50;;;;;;4988756;28;20489;-61
2023/12/08 01:49:05;;;;;;;1.83;1.02;;;21.30;67.60;;;;;;4990008;28;20587;-61
2023/12/08 01:51:32;;;;;;;1.43;1.33;;;21.20;67.60;;;;;;4992238;28;20201;-60
2023/12/08 01:53:58;;;;;;;1.63;1.20;;;21.20;67.60;;;;;;4992958;28;20469;-62
2023/12/08 01:56:27;;;;;;;1.60;1.10;;;21.20;67.50;;;;;;4994156;28;20480;-60
2023/12/08 01:58:55;;;;;;;1.83;1.00;;;21.20;67.60;;;;;;4988000;28;20466;-61
2023/12/08 02:01:22;;;;;;;1.23;1.13;;;21.20;67.50;;;;;;4991005;28;20462;-62
2023/12/08 02:03:50;;;;;;;1.55;1.15;;;21.20;67.50;;;;;;4990281;28;20478;-61
2023/12/08 02:06:17;;;;;;;1.83;1.40;;;21.30;67.70;;;;;;4985326;28;20202;-60
2023/12/08 02:08:45;;;;;;;1.50;1.27;;;21.20;67.60;;;;;;4992752;28;20594;-61
2023/12/08 02:11:13;;;;;;;1.57;1.20;;;21.20;67.50;;;;;;4993108;28;20460;-62
2023/12/08 02:13:40;;;;;;;1.40;1.30;;;21.20;67.60;;;;;;4982784;28;20478;-56
2023/12/08 02:16:12;;;;;;;1.53;1.33;;;21.20;67.50;;;;;;4983308;28;20472;-62
2023/12/08 02:18:40;;;;;;;1.63;1.27;;;21.20;67.50;;;;;;4987049;28;20455;-61
2023/12/08 02:21:08;;;;;;;1.90;1.70;;;21.20;68.40;;;;;;4986495;28;20553;-62
2023/12/08 02:23:35;;;;;;;1.50;1.20;;;21.20;67.50;;;;;;4983808;28;20581;-62
2023/12/08 02:26:03;;;;;;;1.40;1.10;;;21.30;67.60;;;;;;4983742;28;20464;-58
2023/12/08 02:28:30;;;;;;;1.20;1.10;;;21.20;67.50;;;;;;4985816;28;20460;-60
2023/12/08 02:30:58;;;;;;;1.60;1.30;;;21.20;67.50;;;;;;4987991;28;20463;-62
2023/12/08 02:33:30;;;;;;;1.20;1.10;;;21.20;67.50;;;;;;4986258;28;20460;-62
2023/12/08 02:35:59;;;;;;;1.27;1.17;;;21.20;67.50;;;;;;4979376;28;20460;-59
2023/12/08 02:38:27;;;;;;;1.35;1.25;;;21.20;67.50;;;;;;4984539;28;20201;-59
2023/12/08 02:40:55;;;;;;;1.48;1.20;;;21.20;67.50;;;;;;4982576;28;20228;-60
2023/12/08 02:43:23;;;;;;;1.30;1.10;;;21.20;67.50;;;;;;4986319;28;20243;-57
2023/12/08 02:45:50;;;;;;;1.40;1.20;;;21.20;67.40;;;;;;4986702;28;20213;-63
2023/12/08 02:48:17;;;;;;;1.53;1.40;;;21.20;67.50;;;;;;4986241;28;20483;-60
2023/12/08 02:50:44;;;;;;;1.38;1.20;;;21.20;67.50;;;;;;4984599;28;20464;-60
2023/12/08 02:53:10;;;;;;;1.30;1.20;;;21.20;67.40;;;;;;4985381;28;20201;-61
2023/12/08 02:55:37;;;;;;;2.47;1.23;;;21.20;67.50;;;;;;4986673;28;20471;-63
2023/12/08 02:58:04;;;;;;;1.43;1.17;;;21.10;67.40;;;;;;4986123;28;20479;-62
2023/12/08 03:00:32;;;;;;;1.17;1.00;;;21.10;67.40;;;;;;4985968;28;20829;-60
2023/12/08 03:02:58;;;;;;;1.65;1.20;;;21.10;67.40;;;;;;4987414;28;20225;-62
2023/12/08 03:05:25;;;;;;;1.43;1.33;;;21.10;68.20;;;;;;4983504;28;20215;-63
2023/12/08 03:07:52;;;;;;;1.30;1.20;;;21.20;67.60;;;;;;4982102;28;20475;-62
2023/12/08 03:10:19;;;;;;;1.50;1.20;;;21.10;67.40;;;;;;4987542;28;20444;-59
2023/12/08 03:12:46;;;;;;;1.13;1.03;;;21.20;67.50;;;;;;4987359;28;20471;-61
2023/12/08 03:15:12;;;;;;;1.73;1.10;;;21.10;67.40;;;;;;4985088;28;20488;-60
2023/12/08 03:17:40;;;;;;;1.50;1.27;;;21.20;67.50;;;;;;4982327;28;20472;-60
2023/12/08 03:20:08;;;;;;;1.35;1.20;;;21.10;67.50;;;;;;4988529;28;20223;-59
2023/12/08 03:22:35;;;;;;;1.13;1.00;;;21.10;67.50;;;;;;4988337;28;20412;-63
2023/12/08 03:25:01;;;;;;;1.50;1.40;;;21.20;67.60;;;;;;4982801;28;20211;-61
2023/12/08 03:27:28;;;;;;;1.30;1.00;;;21.10;67.50;;;;;;4986704;28;20544;-58
2023/12/08 03:29:55;;;;;;;1.42;1.33;;;21.10;67.50;;;;;;4981790;28;20853;-61
2023/12/08 03:32:21;;;;;;;1.53;1.30;;;21.10;67.50;;;;;;4986195;28;20212;-59
2023/12/08 03:34:50;;;;;;;2.20;2.00;;;21.10;67.60;;;;;;4984233;28;20467;-62
2023/12/08 03:37:16;;;;;;;1.30;1.20;;;21.10;67.50;;;;;;4985140;28;20467;-59
2023/12/08 03:39:44;;;;;;;1.20;1.10;;;21.10;67.40;;;;;;4986983;28;20198;-63
2023/12/08 03:42:11;;;;;;;1.37;1.00;;;21.10;67.50;;;;;;4985280;28;20282;-62
2023/12/08 03:44:37;;;;;;;1.40;1.30;;;21.10;67.50;;;;;;4986112;28;20491;-61
2023/12/08 03:47:04;;;;;;;1.50;1.33;;;21.10;67.50;;;;;;4986833;28;20197;-61
2023/12/08 03:49:31;;;;;;;1.30;1.10;;;21.10;67.80;;;;;;4990135;28;20211;-63
2023/12/08 03:51:59;;;;;;;1.10;0.90;;;21.10;67.40;;;;;;4983375;28;20466;-62
2023/12/08 03:54:26;;;;;;;1.80;1.07;;;21.10;67.60;;;;;;4980897;28;20476;-61
2023/12/08 03:56:52;;;;;;;1.10;1.00;;;21.10;67.50;;;;;;4980143;28;21138;-63
2023/12/08 03:59:19;;;;;;;1.20;1.10;;;21.10;68.30;;;;;;4979674;28;20201;-60
2023/12/08 04:01:46;;;;;;;1.67;1.57;;;21.10;67.50;;;;;;4979139;28;20455;-60
2023/12/08 04:04:12;;;;;;;1.40;1.02;;;21.10;67.50;;;;;;4983255;28;20483;-59
2023/12/08 04:06:39;;;;;;;1.30;1.13;;;21.10;67.50;;;;;;4974886;28;21010;-62
2023/12/08 04:09:08;;;;;;;1.33;1.03;;;21.10;67.50;;;;;;4975515;28;20465;-62
2023/12/08 04:11:34;;;;;;;1.75;1.10;;;21.10;67.50;;;;;;4981963;28;20466;-60
2023/12/08 04:14:01;;;;;;;1.27;1.10;;;21.20;67.60;;;;;;4979128;28;20205;-58
2023/12/08 04:16:28;;;;;;;1.63;1.10;;;21.10;67.50;;;;;;4980963;28;20465;-57
2023/12/08 04:18:54;;;;;;;1.75;1.25;;;21.10;67.50;;;;;;4983303;28;20464;-60
2023/12/08 04:21:21;;;;;;;1.45;1.00;;;21.10;67.50;;;;;;4982580;28;20197;-58
2023/12/08 04:23:48;;;;;;;1.20;0.97;;;21.10;67.40;;;;;;4982328;28;20220;-62
2023/12/08 04:26:20;;;;;;;1.40;1.10;;;21.10;67.40;;;;;;4981983;28;20468;-62
2023/12/08 04:28:47;;;;;;;1.15;0.95;;;21.10;67.40;;;;;;4984326;28;20658;-61
2023/12/08 04:31:14;;;;;;;1.33;1.23;;;21.10;67.50;;;;;;4981650;28;20204;-60
2023/12/08 04:33:40;;;;;;;1.30;1.20;;;21.10;67.50;;;;;;4980903;28;20216;-62
2023/12/08 04:36:09;;;;;;;3.13;1.20;;;21.10;67.50;;;;;;4982282;28;20837;-62
2023/12/08 04:38:35;;;;;;;2.08;1.30;;;21.10;67.40;;;;;;4983880;28;20456;-57
2023/12/08 04:41:02;;;;;;;1.17;1.07;;;21.10;67.50;;;;;;4981508;28;20204;-62
2023/12/08 04:43:30;;;;;;;1.83;1.60;;;21.10;67.40;;;;;;4983813;28;21600;-55
2023/12/08 04:45:57;;;;;;;1.00;0.90;;;21.10;67.50;;;;;;4985515;28;20447;-59
2023/12/08 04:48:23;;;;;;;1.13;1.02;;;21.10;67.50;;;;;;4976088;28;20199;-60
2023/12/08 04:50:51;;;;;;;1.20;1.02;;;21.10;67.50;;;;;;4984959;28;20197;-63
2023/12/08 04:53:18;;;;;;;1.15;0.98;;;21.10;67.40;;;;;;4986967;28;20205;-62
2023/12/08 04:55:45;;;;;;;1.30;1.20;;;21.00;67.30;;;;;;4985935;28;20200;-60
2023/12/08 04:58:12;;;;;;;1.45;1.00;;;21.10;67.40;;;;;;4985527;28;20471;-59
2023/12/08 05:00:40;;;;;;;1.20;1.10;;;21.10;67.40;;;;;;4982799;28;20228;-62
2023/12/08 05:03:07;;;;;;;1.30;1.20;;;21.00;67.30;;;;;;4984560;28;20228;-60
2023/12/08 05:05:33;;;;;;;1.02;0.90;;;21.00;67.30;;;;;;4987755;28;20975;-57
2023/12/08 05:08:00;;;;;;;1.50;1.20;;;21.10;67.40;;;;;;4984111;28;21333;-59
2023/12/08 05:10:27;;;;;;;1.40;1.20;;;21.00;67.30;;;;;;4981685;28;20205;-61
2023/12/08 05:12:54;;;;;;;1.40;1.00;;;21.10;67.40;;;;;;4983226;28;20464;-61
2023/12/08 05:15:21;;;;;;;1.30;0.93;;;21.00;67.20;;;;;;4981948;28;20472;-60
2023/12/08 05:17:49;;;;;;;1.20;0.97;;;21.10;67.40;;;;;;4981519;28;20829;-61
2023/12/08 05:20:16;;;;;;;1.20;1.00;;;21.10;67.40;;;;;;4982644;28;20458;-61
2023/12/08 05:22:42;;;;;;;1.30;1.00;;;21.10;67.50;;;;;;4983378;28;20204;-61
2023/12/08 05:25:09;;;;;;;1.27;1.00;;;21.10;67.40;;;;;;4982248;28;20191;-60
2023/12/08 05:27:36;;;;;;;1.10;1.00;;;21.10;67.40;;;;;;4984253;28;20513;-62
2023/12/08 05:30:03;;;;;;;1.50;0.90;;;21.10;67.40;;;;;;4988069;28;20550;-62
2023/12/08 05:32:30;;;;;;;1.10;0.90;;;21.10;67.40;;;;;;4985465;28;20451;-62
2023/12/08 05:34:58;;;;;;;1.20;0.97;;;21.00;67.20;;;;;;4979018;28;20227;-61
2023/12/08 05:37:24;;;;;;;1.25;0.80;;;21.10;67.40;;;;;;4985631;28;20459;-62
2023/12/08 05:39:51;;;;;;;1.83;1.38;;;21.00;67.20;;;;;;4984358;28;20201;-61
2023/12/08 05:42:18;;;;;;;1.67;1.40;;;21.00;67.20;;;;;;4982409;28;20260;-61
2023/12/08 05:44:45;;;;;;;4.10;1.00;;;21.00;67.20;;;;;;4984963;28;20793;-59
2023/12/08 05:47:11;;;;;;;4.10;1.10;;;21.10;67.50;;;;;;4983675;28;20506;-60
2023/12/08 05:49:38;;;;;;;1.97;1.00;;;21.10;67.60;;;;;;4986349;28;21200;-62
2023/12/08 05:52:06;;;;;;;1.15;0.90;;;21.10;67.90;;;;;;4982540;28;20526;-57
2023/12/08 05:54:33;;;;;;;1.20;0.93;;;21.10;68.20;;;;;;4982432;28;20204;-58
2023/12/08 05:57:00;;;;;;;1.77;1.10;;;21.10;68.40;;;;;;4978464;28;20233;-58
2023/12/08 05:59:27;;;;;;;1.43;1.00;;;21.10;68.60;;;;;;4984592;28;20480;-56
2023/12/08 06:01:53;;;;;;;7.18;1.05;;;21.10;68.60;;;;;;4981763;28;20456;-59
2023/12/08 06:04:20;;;;;;;1.70;1.00;;;21.10;69.00;;;;;;4981772;28;20246;-60
2023/12/08 06:06:47;;;;;;;1.23;0.90;;;21.20;69.10;;;;;;4979984;28;20469;-60
2023/12/08 06:09:16;;;;;;;1.37;1.10;;;21.20;69.00;;;;;;4981154;28;20468;-58
2023/12/08 06:11:42;;;;;;;1.30;1.20;;;21.20;69.20;;;;;;4982021;28;21553;-60
2023/12/08 06:14:09;;;;;;;1.50;1.03;;;21.20;69.30;;;;;;4979940;28;20479;-62
2023/12/08 06:16:36;;;;;;;1.05;0.95;;;21.20;69.60;;;;;;4983325;28;20460;-58
2023/12/08 06:19:05;;;;;;;1.00;0.87;;;21.20;69.20;;;;;;4984552;28;20659;-61
2023/12/08 06:21:31;;;;;;;1.67;1.00;;;21.20;69.20;;;;;;4982022;28;21070;-63
2023/12/08 06:23:58;;;;;;;1.20;1.00;;;21.20;69.10;;;;;;4982281;28;20481;-63
2023/12/08 06:26:26;;;;;;;1.20;0.90;;;21.20;69.00;;;;;;4985300;28;20459;-62
2023/12/08 06:28:53;;;;;;;1.20;1.10;;;21.20;68.90;;;;;;4985448;28;20473;-61
2023/12/08 06:31:20;;;;;;;1.30;1.20;;;21.20;68.80;;;;;;4983133;28;20452;-62
2023/12/08 06:33:46;;;;;;;1.30;1.00;;;21.30;68.80;;;;;;4985346;28;20474;-58
2023/12/08 06:36:15;;;;;;;1.37;1.03;;;21.30;68.60;;;;;;4981517;28;20471;-62
2023/12/08 06:38:42;;;;;;;1.47;1.00;;;21.30;68.60;;;;;;4975285;28;20474;-59
2023/12/08 06:41:09;;;;;;;1.20;0.93;;;21.30;68.20;;;;;;4978368;28;20497;-59
2023/12/08 06:43:38;;;;;;;1.30;1.10;;;21.30;67.90;;;;;;4986954;28;20483;-59
2023/12/08 06:46:04;;;;;;;6.43;1.10;;;21.40;67.80;;;;;;4979771;28;20463;-61
2023/12/08 06:48:31;;;;;;;1.20;1.10;;;21.40;67.60;;;;;;4979786;28;20471;-63
2023/12/08 06:50:58;;;;;;;1.73;1.00;;;21.40;67.80;;;;;;4982385;28;20467;-63
2023/12/08 06:53:24;;;;;;;1.67;1.10;;;21.40;68.00;;;;;;4984450;28;20465;-62
2023/12/08 06:55:51;;;;;;;1.47;0.87;;;21.40;68.10;;;;;;4986467;28;20834;-63
2023/12/08 06:58:18;;;;;;;1.70;1.20;;;21.40;68.10;;;;;;4980683;28;20477;-61
2023/12/08 07:00:47;;;;;;;1.20;1.10;;;21.40;68.30;;;;;;4985963;28;21056;-65
2023/12/08 07:03:14;;;;;;;1.30;1.20;;;21.40;68.40;;;;;;4982735;28;20463;-66
2023/12/08 07:05:41;;;;;;;1.10;1.00;;;21.40;68.50;;;;;;4988420;28;21358;-65
2023/12/08 07:08:07;;;;;;;1.40;1.00;;;21.50;68.50;;;;;;4985471;28;20464;-64
2023/12/08 07:10:34;;;;;;;1.00;0.77;;;21.50;68.50;;;;;;4988116;28;20471;-63
2023/12/08 07:13:01;;;;;;;1.30;0.90;;;21.50;68.50;;;;;;4987790;28;20459;-66
2023/12/08 07:15:27;;;;;;;1.20;1.00;;;21.50;68.50;;;;;;4983647;28;20942;-59
2023/12/08 07:17:56;;;;;;;1.33;1.00;;;21.50;68.60;;;;;;4983468;28;20464;-66
2023/12/08 07:20:23;;;;;;;1.10;1.00;;;21.60;68.70;;;;;;4987860;28;20726;-65
2023/12/08 07:22:49;;;;;;;1.00;0.80;;;21.60;68.80;;;;;;4988809;28;20466;-66
2023/12/08 07:25:16;;;;;;;1.60;1.07;;;21.60;68.90;;;;;;4984683;28;20486;-67
2023/12/08 07:27:43;;;;;;;1.43;0.90;;;21.60;69.10;;;;;;4978566;28;20857;-63
2023/12/08 07:30:11;;;;;;;1.00;0.80;;;21.60;69.20;;;;;;4982805;28;20458;-60
2023/12/08 07:32:38;;;;;;;1.33;0.97;;;21.70;69.40;;;;;;4986975;28;20478;-61
2023/12/08 07:35:08;;;;;;;1.20;1.00;;;21.70;69.40;;;;;;4983859;28;20961;-58
2023/12/08 07:37:39;;;;;;;1.20;1.10;;;21.70;69.40;;;;;;4980283;28;20471;-62
2023/12/08 07:40:07;;;;;;;1.40;0.97;;;21.70;69.50;;;;;;4982207;28;20455;-64
2023/12/08 07:42:33;;;;;;;1.20;0.90;;;21.70;69.40;;;;;;4988013;28;20440;-66
2023/12/08 07:45:00;;;;;;;1.60;1.20;;;21.80;70.30;;;;;;4982579;28;20519;-63
2023/12/08 07:47:27;;;;;;;1.30;1.13;;;21.80;69.50;;;;;;4979588;28;20471;-62
2023/12/08 07:49:53;;;;;;;1.10;1.00;;;21.80;69.40;;;;;;4983861;28;20460;-65
2023/12/08 07:52:21;;;;;;;1.50;1.40;;;21.90;69.50;;;;;;4983782;28;20983;-58
2023/12/08 07:54:48;;;;;;;1.43;1.10;;;21.90;69.50;;;;;;4983346;28;20452;-62
2023/12/08 07:57:15;;;;;;;1.17;0.97;;;21.90;70.30;;;;;;4983174;28;20464;-60
2023/12/08 07:59:42;;;;;;;1.10;0.87;;;22.00;69.60;;;;;;4986136;28;20458;-60
2023/12/08 08:02:08;;;;;;;1.10;0.90;;;22.00;69.50;;;;;;4980195;28;20493;-61
2023/12/08 08:04:35;;;;;;;1.33;0.83;;;22.00;69.50;;;;;;4983635;28;20494;-58
2023/12/08 08:07:02;;;;;;;1.00;0.83;;;22.00;69.40;;;;;;4976346;28;20470;-62
2023/12/08 08:09:30;;;;;;;1.10;0.90;;;22.10;69.50;;;;;;4984402;28;20559;-60
2023/12/08 08:11:56;;;;;;;1.13;0.80;;;22.10;69.40;;;;;;4982068;28;20833;-63
2023/12/08 08:14:23;;;;;;;1.77;1.20;;;22.00;69.30;;;;;;4979812;28;20480;-61
2023/12/08 08:16:50;;;;;;;1.30;1.07;;;22.00;69.60;;;;;;4984969;28;20471;-61
2023/12/08 08:19:16;;;;;;;1.50;1.10;;;22.20;69.40;;;;;;4982876;28;20464;-60
2023/12/08 08:21:44;;;;;;;1.30;1.03;;;22.10;69.30;;;;;;4986250;28;21062;-64
2023/12/08 08:24:10;;;;;;;1.40;0.90;;;22.00;69.20;;;;;;4986659;28;21437;-67
2023/12/08 08:26:43;;;;;;;5.03;4.50;;;22.20;69.40;;;;;;4981956;28;20455;-60
2023/12/08 08:29:10;;;;;;;6.83;6.13;;;22.00;62.70;;;;;;4986833;28;20457;-56
2023/12/08 08:31:37;;;;;;;8.73;6.30;;;21.80;60.00;;;;;;4986594;28;20935;-58
2023/12/08 08:34:04;;;;;;;7.67;6.40;;;21.60;58.50;;;;;;4984079;28;20466;-55
2023/12/08 08:36:31;;;;;;;7.67;6.30;;;21.50;56.50;;;;;;4982444;28;20517;-61
2023/12/08 08:38:58;;;;;;;7.40;6.20;;;21.30;56.80;;;;;;4987476;28;20505;-60
2023/12/08 08:41:25;;;;;;;5.37;4.90;;;21.10;55.90;;;;;;4984688;28;20470;-58
2023/12/08 08:43:53;;;;;;;5.90;5.30;;;21.10;57.50;;;;;;4987718;28;20468;-56
2023/12/08 08:46:19;;;;;;;3.77;3.37;;;21.20;58.60;;;;;;4979095;28;22818;-60
2023/12/08 08:48:47;;;;;;;3.43;3.10;;;21.30;58.80;;;;;;4987660;28;20459;-59
2023/12/08 08:51:16;;;;;;;2.70;2.50;;;21.40;59.00;;;;;;4984951;28;20555;-58
2023/12/08 08:53:43;;;;;;;3.10;2.80;;;21.40;59.30;;;;;;4984756;28;20840;-58
2023/12/08 08:56:10;;;;;;;3.00;2.70;;;21.40;59.20;;;;;;4981692;28;20593;-58
2023/12/08 08:58:36;;;;;;;3.67;2.30;;;21.40;59.50;;;;;;4982697;28;20466;-59
2023/12/08 09:01:05;;;;;;;8.77;2.20;;;21.50;59.50;;;;;;4979253;28;20470;-56
2023/12/08 09:03:31;;;;;;;2.23;1.97;;;21.50;59.70;;;;;;4982311;28;21053;-56
2023/12/08 09:05:58;;;;;;;3.07;2.77;;;21.50;59.90;;;;;;4979163;28;20755;-58
2023/12/08 09:08:26;;;;;;;2.50;1.73;;;21.50;60.00;;;;;;4978705;28;20462;-56
2023/12/08 09:10:53;;;;;;;1.80;1.70;;;21.50;60.30;;;;;;4989220;28;20472;-55
2023/12/08 09:13:20;;;;;;;2.00;1.90;;;21.60;60.70;;;;;;4984649;28;20461;-55
2023/12/08 09:15:48;;;;;;;3.30;1.73;;;21.60;60.90;;;;;;4987113;28;21528;-59
2023/12/08 09:18:16;;;;;;;2.97;2.10;;;21.60;61.10;;;;;;4986330;28;20932;-57
2023/12/08 09:20:44;;;;;;;4.30;2.00;;;21.60;61.10;;;;;;4983147;28;20467;-55
2023/12/08 09:23:11;;;;;;;3.10;2.13;;;21.70;61.40;;;;;;4984734;28;20878;-58
2023/12/08 09:25:38;;;;;;;2.10;1.90;;;21.70;61.60;;;;;;4987245;28;20574;-57
2023/12/08 09:28:05;;;;;;;1.60;1.50;;;21.70;61.60;;;;;;4989609;28;20466;-59
2023/12/08 09:30:32;;;;;;;2.27;1.80;;;21.70;61.80;;;;;;4986473;28;20464;-58
2023/12/08 09:32:59;;;;;;;2.80;1.60;;;21.70;61.90;;;;;;4981124;28;20975;-59
2023/12/08 09:35:27;;;;;;;1.73;1.53;;;21.70;62.10;;;;;;4978722;28;20475;-58
2023/12/08 09:37:53;;;;;;;1.83;1.73;;;21.70;62.10;;;;;;4985764;28;20468;-57
2023/12/08 09:40:24;;;;;;;2.07;1.50;;;21.80;62.30;;;;;;4990379;28;20859;-58
2023/12/08 09:42:56;;;;;;;1.57;1.47;;;21.80;62.40;;;;;;4989385;28;20443;-58
2023/12/08 09:45:23;;;;;;;1.60;1.50;;;21.80;62.50;;;;;;4985445;28;20479;-61
2023/12/08 09:47:55;;;;;;;1.93;1.70;;;21.80;62.60;;;;;;4987878;28;20825;-59
2023/12/08 09:50:22;;;;;;;2.00;1.80;;;21.80;62.60;;;;;;4987787;28;20502;-59
2023/12/08 09:52:51;;;;;;;1.97;1.67;;;21.80;63.50;;;;;;4987132;28;20479;-59
2023/12/08 09:55:18;;;;;;;1.60;1.50;;;21.80;62.80;;;;;;4989471;28;20464;-57
2023/12/08 09:57:46;;;;;;;2.30;1.63;;;21.80;63.00;;;;;;4987762;28;20463;-56
2023/12/08 10:00:15;;;;;;;2.27;1.80;;;21.80;63.20;;;;;;4984392;28;20519;-56
2023/12/08 10:02:42;;;;;;;2.77;1.37;;;21.80;63.20;;;;;;4986360;28;20470;-54
2023/12/08 10:05:10;;;;;;;4.67;1.57;;;21.70;63.40;;;;;;4981409;28;20482;-61
2023/12/08 10:07:40;;;;;;;1.60;1.50;;;21.80;63.80;;;;;;4981864;28;20471;-58
2023/12/08 10:10:09;;;;;;;3.50;1.53;;;21.80;64.00;;;;;;4985257;28;20490;-60
2023/12/08 10:12:37;;;;;;;2.13;1.50;;;21.80;64.40;;;;;;4985572;28;20947;-61
2023/12/08 10:15:04;;;;;;;1.60;1.40;;;21.80;64.50;;;;;;4986069;28;20553;-65
2023/12/08 10:17:31;;;;;;;2.47;1.60;;;21.80;64.80;;;;;;4991076;28;20471;-62
2023/12/08 10:20:09;;;;;;;2.80;1.60;;;21.80;65.00;;;;;;4984152;28;22022;-62
2023/12/08 10:22:45;;;;;;;2.13;1.40;;;21.80;65.30;;;;;;4989103;28;20464;-60
2023/12/08 10:25:14;;;;;;;2.73;1.30;;;21.80;65.40;;;;;;4989872;28;20478;-62
2023/12/08 10:27:40;;;;;;;1.47;1.37;;;21.90;66.40;;;;;;4983467;28;21027;-64
2023/12/08 10:30:08;;;;;;;2.30;1.90;;;21.80;65.60;;;;;;4986248;28;20467;-63
2023/12/08 10:32:35;;;;;;;1.83;1.20;;;21.90;65.80;;;;;;4988789;28;20467;-63
2023/12/08 10:35:02;;;;;;;1.93;1.70;;;21.90;65.80;;;;;;4986297;28;20480;-57
2023/12/08 10:37:29;;;;;;;2.50;1.83;;;21.90;66.00;;;;;;4987041;28;20459;-60
2023/12/08 10:39:56;;;;;;;1.60;1.30;;;21.90;65.50;;;;;;4983765;28;20462;-61
2023/12/08 10:42:26;;;;;;;1.40;1.20;;;21.90;65.50;;;;;;4987231;28;20463;-59
2023/12/08 10:44:52;;;;;;;2.33;1.20;;;21.90;65.60;;;;;;4991197;28;20483;-57
2023/12/08 10:47:21;;;;;;;3.10;1.40;;;21.90;65.70;;;;;;4991239;28;20922;-62
2023/12/08 10:49:50;;;;;;;1.63;1.37;;;21.90;65.80;;;;;;4986173;28;20706;-58
2023/12/08 10:52:19;;;;;;;1.57;1.27;;;21.90;65.90;;;;;;4991632;28;20498;-58
2023/12/08 10:54:46;;;;;;;2.00;1.30;;;21.90;66.00;;;;;;4990116;28;20835;-53
2023/12/08 10:57:12;;;;;;;1.53;1.30;;;22.00;66.10;;;;;;4985886;28;20471;-54
2023/12/08 10:59:44;;;;;;;2.47;1.40;;;22.00;66.20;;;;;;4988792;28;20467;-52
2023/12/08 11:02:21;;;;;;;1.83;1.73;;;21.90;66.20;;;;;;4990627;28;20460;-57
2023/12/08 11:04:54;;;;;;;1.20;1.10;;;21.90;67.10;;;;;;4989352;28;20483;-61
2023/12/08 11:07:28;;;;;;;1.63;1.53;;;21.90;66.40;;;;;;4986998;28;20462;-62
2023/12/08 11:10:00;;;;;;;2.70;1.30;;;21.90;66.60;;;;;;4992361;28;20515;-62
2023/12/08 11:12:29;;;;;;;2.07;1.40;;;21.90;66.70;;;;;;4989951;28;20556;-61
2023/12/08 11:15:03;;;;;;;2.27;1.30;;;22.00;66.90;;;;;;4988851;28;20467;-61
2023/12/08 11:17:34;;;;;;;1.67;1.57;;;21.90;66.80;;;;;;4987121;28;20470;-61
2023/12/08 11:20:01;;;;;;;1.83;1.33;;;22.00;67.00;;;;;;4990759;28;20464;-59
2023/12/08 11:22:28;;;;;;;1.53;1.20;;;22.00;67.00;;;;;;4984856;28;20474;-58
2023/12/08 11:24:57;;;;;;;2.20;1.83;;;22.00;67.00;;;;;;4989697;28;20489;-59
2023/12/08 11:27:31;;;;;;;1.30;1.20;;;22.00;67.00;;;;;;4989986;28;20491;-53
2023/12/08 11:30:06;;;;;;;1.30;1.20;;;22.00;67.00;;;;;;4988565;28;20459;-60
2023/12/08 11:32:39;;;;;;;1.57;1.27;;;22.00;67.00;;;;;;4985488;28;20478;-60
2023/12/08 11:35:08;;;;;;;2.13;1.30;;;22.10;67.20;;;;;;4987605;28;20479;-59
2023/12/08 11:37:35;;;;;;;2.03;1.40;;;22.00;67.10;;;;;;4988371;28;20462;-60
2023/12/08 11:40:05;;;;;;;2.23;2.03;;;22.10;67.10;;;;;;4988830;28;20459;-60
2023/12/08 11:42:34;;;;;;;1.50;1.20;;;22.20;67.30;;;;;;4987164;28;20809;-59
2023/12/08 11:45:02;;;;;;;1.93;1.43;;;22.10;67.10;;;;;;4985526;28;20545;-60
2023/12/08 11:47:30;;;;;;;2.50;1.30;;;22.20;67.30;;;;;;4986569;28;20474;-59
2023/12/08 11:49:57;;;;;;;2.03;1.40;;;22.10;67.00;;;;;;4986596;28;21482;-66
2023/12/08 11:52:27;;;;;;;4.13;1.40;;;22.20;65.40;;;;;;4986001;28;20456;-66
2023/12/08 11:55:09;;;;;;;1.20;1.00;;;22.20;62.80;;;;;;4990931;28;20455;-65
2023/12/08 11:57:40;;;;;;;1.60;1.47;;;22.10;63.50;;;;;;4988517;28;20468;-65
2023/12/08 12:00:10;;;;;;;1.70;1.30;;;22.10;63.50;;;;;;4984225;28;20932;-65
2023/12/08 12:02:40;;;;;;;1.93;1.33;;;22.00;63.40;;;;;;4899511;28;21157;-65
2023/12/08 12:05:08;;;;;;;1.60;1.40;;;22.10;63.40;;;;;;4791594;28;21272;-62
2023/12/08 12:07:35;;;;;;;1.60;1.50;;;22.00;63.10;;;;;;4916925;28;20460;-64
2023/12/08 12:10:03;;;;;;;1.93;1.00;;;22.00;63.00;;;;;;4986373;28;20475;-64
2023/12/08 12:12:32;;;;;;;2.13;1.70;;;22.10;63.00;;;;;;4989319;28;20471;-64
2023/12/08 12:15:03;;;;;;;1.70;1.60;;;22.10;63.00;;;;;;4988404;28;20464;-64
2023/12/08 12:17:31;;;;;;;2.13;1.27;;;22.10;63.10;;;;;;4973983;28;21154;-64
2023/12/08 12:19:58;;;;;;;1.50;1.40;;;22.20;63.40;;;;;;4985533;28;21412;-64
2023/12/08 12:22:25;;;;;;;1.57;1.47;;;22.20;63.50;;;;;;4983346;28;20467;-62
2023/12/08 12:24:52;;;;;;;1.40;1.27;;;22.10;63.50;;;;;;4983809;28;20456;-62
2023/12/08 12:27:18;;;;;;;1.47;1.37;;;22.20;63.50;;;;;;4977920;28;20460;-65
2023/12/08 12:29:46;;;;;;;2.33;1.27;;;22.20;63.60;;;;;;4974417;28;20467;-60
2023/12/08 12:32:14;;;;;;;1.50;1.37;;;22.20;63.60;;;;;;4980530;28;20459;-63
2023/12/08 12:34:42;;;;;;;3.77;1.30;;;22.20;63.90;;;;;;4983893;28;20972;-65
2023/12/08 12:37:10;;;;;;;1.80;1.30;;;22.30;64.10;;;;;;4985655;28;20456;-65
2023/12/08 12:39:37;;;;;;;2.63;1.40;;;22.30;64.30;;;;;;4981633;28;20470;-64
2023/12/08 12:42:05;;;;;;;1.90;1.57;;;22.30;64.40;;;;;;4977416;28;21244;-65
2023/12/08 12:44:40;;;;;;;1.63;1.50;;;22.40;64.50;;;;;;4989744;28;20998;-68
2023/12/08 12:47:09;;;;;;;1.40;1.20;;;22.40;64.60;;;;;;4988114;28;20526;-67
2023/12/08 12:49:36;;;;;;;1.50;1.07;;;22.40;64.50;;;;;;4989759;28;20573;-69